createdAt,value
2022-11-16T00:00:20.830Z,16.75
2022-11-16T00:02:53.097Z,16.73
2022-11-16T00:05:28.189Z,16.68
2022-11-16T00:08:19.805Z,16.59
2022-11-16T00:10:50.201Z,16.52
2022-11-16T00:13:20.893Z,16.47
2022-11-16T00:15:58.736Z,16.44
2022-11-16T00:18:30.494Z,16.41
2022-11-16T00:21:01.712Z,16.34
2022-11-16T00:23:31.766Z,16.30
2022-11-16T00:26:06.985Z,16.27
2022-11-16T00:28:38.219Z,16.21
2022-11-16T00:31:09.548Z,16.18
2022-11-16T00:33:41.274Z,16.11
2022-11-16T00:36:14.146Z,16.07
2022-11-16T00:38:45.164Z,16.06
2022-11-16T00:41:16.929Z,16.06
2022-11-16T00:43:47.211Z,15.97
2022-11-16T00:46:17.367Z,15.99
2022-11-16T00:48:47.835Z,15.91
2022-11-16T00:51:18.214Z,15.80
2022-11-16T00:53:48.126Z,15.76
2022-11-16T00:56:18.150Z,15.67
2022-11-16T00:58:48.414Z,15.62
2022-11-16T01:01:19.686Z,15.56
2022-11-16T01:03:50.456Z,15.52
2022-11-16T01:06:21.923Z,15.55
2022-11-16T01:08:52.644Z,15.48
2022-11-16T01:11:41.187Z,15.43
2022-11-16T01:14:13.010Z,15.48
2022-11-16T01:16:44.913Z,15.45
2022-11-16T01:19:15.220Z,15.42
2022-11-16T01:21:45.544Z,15.32
2022-11-16T01:24:16.032Z,15.25
2022-11-16T01:26:46.294Z,15.22
2022-11-16T01:29:34.597Z,15.24
2022-11-16T01:32:05.360Z,15.17
2022-11-16T01:34:36.893Z,15.17
2022-11-16T01:37:15.541Z,15.07
2022-11-16T01:39:45.684Z,15.04
2022-11-16T01:42:24.330Z,14.94
2022-11-16T01:45:28.365Z,14.95
2022-11-16T01:48:00.205Z,14.91
2022-11-16T01:50:34.649Z,14.90
2022-11-16T01:53:26.079Z,14.85
2022-11-16T01:55:59.636Z,14.85
2022-11-16T01:58:48.410Z,14.84
2022-11-16T02:01:28.110Z,14.83
2022-11-16T02:04:02.919Z,14.79
2022-11-16T02:07:02.130Z,14.74
2022-11-16T02:10:02.684Z,14.70
2022-11-16T02:12:55.517Z,14.66
2022-11-16T02:15:47.276Z,14.67
2022-11-16T02:18:29.693Z,14.60
2022-11-16T02:21:13.188Z,14.61
2022-11-16T02:24:05.553Z,14.61
2022-11-16T02:27:02.952Z,14.57
2022-11-16T02:29:52.896Z,14.52
2022-11-16T02:32:43.856Z,14.43
2022-11-16T02:35:31.649Z,14.43
2022-11-16T02:38:12.669Z,14.40
2022-11-16T02:40:47.653Z,14.37
2022-11-16T02:43:39.858Z,14.26
2022-11-16T02:46:27.786Z,14.23
2022-11-16T02:49:01.957Z,14.23
2022-11-16T02:51:34.591Z,14.21
2022-11-16T02:54:14.154Z,14.19
2022-11-16T02:56:53.690Z,14.19
2022-11-16T02:59:32.570Z,14.12
2022-11-16T03:02:29.845Z,14.13
2022-11-16T03:05:39.254Z,14.12
2022-11-16T03:08:20.041Z,14.01
2022-11-16T03:11:31.218Z,13.97
2022-11-16T03:14:08.383Z,13.92
2022-11-16T03:16:47.132Z,13.94
2022-11-16T03:19:23.701Z,13.91
2022-11-16T03:21:59.406Z,13.85
2022-11-16T03:24:31.310Z,13.84
2022-11-16T03:27:10.975Z,13.82
2022-11-16T03:29:55.546Z,13.77
2022-11-16T03:32:48.986Z,13.77
2022-11-16T03:35:26.446Z,13.68
2022-11-16T03:38:00.954Z,13.67
2022-11-16T03:40:34.861Z,13.64
2022-11-16T03:43:08.200Z,13.65
2022-11-16T03:45:39.210Z,13.61
2022-11-16T03:48:11.217Z,13.61
2022-11-16T03:50:42.737Z,13.58
2022-11-16T03:53:13.382Z,13.54
2022-11-16T03:55:48.489Z,13.48
2022-11-16T03:58:20.612Z,13.47
2022-11-16T04:00:50.869Z,13.44
2022-11-16T04:03:21.769Z,13.47
2022-11-16T04:06:10.557Z,13.40
2022-11-16T04:08:59.196Z,13.37
2022-11-16T04:11:48.313Z,13.30
2022-11-16T04:14:41.562Z,13.27
2022-11-16T04:17:37.779Z,13.27
2022-11-16T04:20:27.409Z,13.23
2022-11-16T04:23:21.609Z,13.19
2022-11-16T04:25:55.815Z,13.20
2022-11-16T04:28:32.873Z,13.23
2022-11-16T04:31:26.589Z,13.20
2022-11-16T04:34:25.218Z,13.19
2022-11-16T04:37:17.752Z,13.13
2022-11-16T04:39:48.585Z,13.12
2022-11-16T04:42:24.219Z,13.10
2022-11-16T04:45:15.060Z,13.02
2022-11-16T04:47:54.441Z,13.02
2022-11-16T04:50:29.903Z,12.99
2022-11-16T04:53:08.311Z,12.96
2022-11-16T04:55:48.336Z,12.95
2022-11-16T04:58:26.113Z,12.92
2022-11-16T05:01:01.029Z,12.92
2022-11-16T05:06:19.660Z,12.85
2022-11-16T05:08:54.092Z,12.81
2022-11-16T05:11:34.555Z,12.73
2022-11-16T05:14:26.106Z,12.69
2022-11-16T05:16:57.377Z,12.69
2022-11-16T05:19:48.728Z,12.69
2022-11-16T05:22:19.321Z,12.66
2022-11-16T05:24:53.169Z,12.63
2022-11-16T05:27:25.942Z,12.65
2022-11-16T05:30:01.338Z,12.61
2022-11-16T05:32:32.446Z,12.61
2022-11-16T05:35:04.349Z,12.59
2022-11-16T05:37:36.100Z,12.54
2022-11-16T05:40:07.587Z,12.52
2022-11-16T05:42:44.918Z,12.48
2022-11-16T05:45:20.763Z,12.45
2022-11-16T05:47:52.541Z,12.44
2022-11-16T05:50:25.055Z,12.42
2022-11-16T05:53:07.416Z,12.44
2022-11-16T05:55:38.664Z,12.45
2022-11-16T05:58:09.625Z,12.42
2022-11-16T06:00:41.552Z,12.42
2022-11-16T06:03:13.502Z,12.42
2022-11-16T06:05:44.897Z,12.37
2022-11-16T06:08:18.014Z,12.32
2022-11-16T06:10:51.054Z,12.28
2022-11-16T06:13:21.533Z,12.24
2022-11-16T06:15:56.039Z,12.23
2022-11-16T06:18:27.368Z,12.21
2022-11-16T06:20:58.708Z,12.14
2022-11-16T06:23:29.130Z,12.16
2022-11-16T06:26:00.029Z,12.11
2022-11-16T06:28:32.206Z,12.08
2022-11-16T06:31:03.687Z,12.08
2022-11-16T06:33:38.283Z,12.10
2022-11-16T06:36:14.755Z,12.08
2022-11-16T06:38:46.455Z,12.04
2022-11-16T06:41:18.090Z,12.04
2022-11-16T06:43:51.817Z,12.04
2022-11-16T06:46:26.231Z,12.00
2022-11-16T06:48:59.041Z,11.97
2022-11-16T06:51:29.974Z,11.95
2022-11-16T06:54:01.345Z,11.90
2022-11-16T06:56:32.048Z,11.91
2022-11-16T06:59:03.278Z,11.90
2022-11-16T07:01:34.054Z,11.86
2022-11-16T07:04:13.390Z,11.86
2022-11-16T07:06:49.618Z,11.77
2022-11-16T07:09:21.313Z,11.70
2022-11-16T07:11:51.904Z,11.69
2022-11-16T07:14:24.119Z,11.69
2022-11-16T07:16:59.354Z,11.72
2022-11-16T07:19:31.264Z,11.67
2022-11-16T07:22:02.040Z,11.70
2022-11-16T07:24:32.248Z,11.67
2022-11-16T07:27:03.092Z,11.62
2022-11-16T07:29:38.194Z,11.59
2022-11-16T07:32:41.487Z,11.59
2022-11-16T07:35:20.571Z,11.53
2022-11-16T07:37:50.697Z,11.49
2022-11-16T07:40:22.133Z,11.46
2022-11-16T07:42:52.817Z,11.42
2022-11-16T07:45:48.353Z,11.45
2022-11-16T07:48:18.621Z,11.42
2022-11-16T07:51:09.108Z,11.40
2022-11-16T07:53:45.643Z,11.43
2022-11-16T07:56:15.756Z,11.42
2022-11-16T07:58:47.231Z,11.42
2022-11-16T08:01:19.682Z,11.38
2022-11-16T08:03:55.447Z,11.35
2022-11-16T08:06:29.185Z,11.31
2022-11-16T08:09:00.289Z,11.25
2022-11-16T08:11:31.555Z,11.24
2022-11-16T08:14:01.917Z,11.18
2022-11-16T08:16:35.299Z,11.14
2022-11-16T08:19:11.935Z,11.19
2022-11-16T08:21:42.341Z,11.16
2022-11-16T08:24:12.624Z,11.18
2022-11-16T08:26:45.298Z,11.19
2022-11-16T08:29:17.406Z,11.14
2022-11-16T08:31:51.820Z,11.11
2022-11-16T08:34:24.174Z,11.04
2022-11-16T08:37:00.243Z,11.04
2022-11-16T08:39:42.937Z,11.03
2022-11-16T08:42:13.022Z,11.04
2022-11-16T08:44:47.563Z,11.11
2022-11-16T08:47:20.856Z,11.14
2022-11-16T08:49:57.049Z,11.16
2022-11-16T08:52:29.526Z,11.22
2022-11-16T08:55:01.436Z,11.26
2022-11-16T08:57:32.482Z,11.69
2022-11-16T09:00:08.683Z,12.21
2022-11-16T09:02:39.044Z,12.61
2022-11-16T09:05:12.953Z,13.03
2022-11-16T09:07:45.197Z,13.41
2022-11-16T09:10:15.589Z,13.79
2022-11-16T09:12:45.474Z,14.08
2022-11-16T09:15:15.376Z,14.28
2022-11-16T09:17:45.310Z,14.44
2022-11-16T09:20:15.545Z,14.73
2022-11-16T09:22:45.806Z,14.90
2022-11-16T09:25:15.790Z,15.02
2022-11-16T09:27:45.805Z,15.36
2022-11-16T09:30:16.066Z,15.62
2022-11-16T09:32:46.032Z,15.78
2022-11-16T09:35:16.008Z,16.18
2022-11-16T09:37:46.326Z,16.38
2022-11-16T09:40:16.283Z,16.68
2022-11-16T09:43:08.855Z,16.88
2022-11-16T09:45:58.435Z,17.30
2022-11-16T09:48:30.029Z,17.63
2022-11-16T09:51:08.604Z,17.95
2022-11-16T09:53:44.342Z,18.10
2022-11-16T09:56:26.648Z,18.32
2022-11-16T09:59:21.123Z,18.60
2022-11-16T10:01:57.798Z,18.70
2022-11-16T10:04:56.689Z,19.12
2022-11-16T10:07:38.307Z,19.51
2022-11-16T10:10:18.283Z,19.73
2022-11-16T10:13:13.934Z,20.14
2022-11-16T10:16:03.604Z,20.55
2022-11-16T10:18:46.397Z,20.96
2022-11-16T10:21:25.435Z,21.19
2022-11-16T10:24:04.402Z,21.63
2022-11-16T10:26:40.355Z,22.01
2022-11-16T10:29:25.035Z,22.33
2022-11-16T10:32:19.167Z,22.66
2022-11-16T10:34:55.771Z,22.94
2022-11-16T10:37:31.783Z,23.27
2022-11-16T10:40:20.388Z,23.58
2022-11-16T10:43:07.486Z,24.12
2022-11-16T10:45:42.397Z,24.26
2022-11-16T10:48:17.554Z,24.47
2022-11-16T10:50:51.310Z,24.61
2022-11-16T10:53:39.075Z,25.19
2022-11-16T10:56:32.965Z,24.78
2022-11-16T10:59:08.306Z,24.46
2022-11-16T11:01:44.585Z,24.39
2022-11-16T11:04:27.482Z,24.94
2022-11-16T11:06:59.198Z,24.80
2022-11-16T11:09:35.815Z,24.77
2022-11-16T11:12:38.597Z,25.08
2022-11-16T11:15:27.826Z,25.90
2022-11-16T11:18:16.818Z,26.47
2022-11-16T11:20:54.050Z,26.60
2022-11-16T11:23:27.213Z,26.47
2022-11-16T11:26:00.934Z,26.04
2022-11-16T11:28:39.491Z,26.41
2022-11-16T11:31:47.414Z,26.82
2022-11-16T11:34:48.680Z,26.95
2022-11-16T11:37:23.871Z,27.38
2022-11-16T11:40:18.929Z,28.32
2022-11-16T11:43:01.311Z,27.78
2022-11-16T11:45:38.073Z,28.73
2022-11-16T11:48:49.061Z,28.42
2022-11-16T11:51:33.218Z,28.10
2022-11-16T11:54:06.464Z,28.23
2022-11-16T11:56:37.174Z,28.15
2022-11-16T11:59:07.327Z,28.17
2022-11-16T12:01:49.382Z,28.26
2022-11-16T12:04:54.251Z,29.01
2022-11-16T12:07:49.336Z,28.83
2022-11-16T12:10:31.436Z,29.93
2022-11-16T12:13:22.581Z,29.92
2022-11-16T12:16:09.641Z,29.24
2022-11-16T12:19:07.447Z,30.06
2022-11-16T12:22:03.224Z,29.97
2022-11-16T12:24:57.939Z,29.29
2022-11-16T12:27:44.952Z,30.28
2022-11-16T12:30:23.930Z,30.37
2022-11-16T12:33:15.127Z,31.25
2022-11-16T12:36:12.071Z,30.61
2022-11-16T12:39:00.683Z,29.99
2022-11-16T12:41:41.046Z,29.83
2022-11-16T12:44:13.987Z,30.40
2022-11-16T12:46:58.685Z,30.67
2022-11-16T12:49:39.987Z,30.42
2022-11-16T12:52:44.365Z,30.81
2022-11-16T12:55:26.678Z,31.00
2022-11-16T12:58:07.373Z,31.15
2022-11-16T13:00:52.565Z,30.79
2022-11-16T13:03:30.307Z,31.23
2022-11-16T13:06:06.093Z,32.38
2022-11-16T13:08:45.315Z,31.29
2022-11-16T13:11:37.236Z,31.71
2022-11-16T13:14:14.759Z,32.11
2022-11-16T13:16:46.206Z,31.88
2022-11-16T13:19:19.211Z,31.95
2022-11-16T13:22:14.913Z,32.89
2022-11-16T13:25:01.957Z,31.91
2022-11-16T13:27:46.891Z,32.04
2022-11-16T13:30:24.134Z,31.78
2022-11-16T13:33:18.333Z,31.63
2022-11-16T13:35:48.994Z,32.00
2022-11-16T13:38:55.417Z,31.88
2022-11-16T13:41:35.121Z,31.60
2022-11-16T13:44:19.870Z,32.04
2022-11-16T13:47:05.934Z,31.92
2022-11-16T13:49:42.317Z,31.27
2022-11-16T13:52:23.729Z,32.36
2022-11-16T13:54:56.562Z,31.92
2022-11-16T13:57:32.437Z,31.98
2022-11-16T14:00:03.569Z,32.32
2022-11-16T14:02:38.899Z,32.63
2022-11-16T14:05:14.851Z,32.09
2022-11-16T14:07:51.015Z,31.85
2022-11-16T14:10:46.887Z,31.92
2022-11-16T14:13:46.772Z,31.76
2022-11-16T14:16:20.551Z,31.85
2022-11-16T14:18:52.574Z,32.70
2022-11-16T14:22:08.841Z,32.75
2022-11-16T14:24:53.023Z,32.38
2022-11-16T14:27:40.332Z,32.49
2022-11-16T14:30:23.184Z,32.31
2022-11-16T14:32:56.408Z,32.39
2022-11-16T14:35:41.304Z,32.69
2022-11-16T14:38:26.326Z,32.19
2022-11-16T14:40:59.832Z,32.32
2022-11-16T14:43:37.365Z,32.04
2022-11-16T14:46:27.411Z,32.90
2022-11-16T14:49:00.756Z,33.88
2022-11-16T14:51:43.392Z,33.44
2022-11-16T14:54:18.054Z,32.58
2022-11-16T14:57:02.094Z,32.66
2022-11-16T14:59:33.171Z,33.14
2022-11-16T15:02:16.333Z,33.24
2022-11-16T15:04:47.297Z,32.90
2022-11-16T15:07:19.570Z,32.84
2022-11-16T15:10:02.143Z,32.97
2022-11-16T15:12:43.535Z,33.11
2022-11-16T15:15:18.197Z,32.76
2022-11-16T15:18:02.692Z,32.75
2022-11-16T15:20:35.261Z,33.18
2022-11-16T15:23:15.161Z,33.24
2022-11-16T15:25:55.538Z,33.07
2022-11-16T15:28:29.226Z,33.44
2022-11-16T15:31:00.337Z,33.45
2022-11-16T15:33:53.892Z,33.91
2022-11-16T15:36:51.243Z,34.10
2022-11-16T15:39:29.020Z,34.02
2022-11-16T15:42:03.784Z,34.17
2022-11-16T15:44:35.928Z,34.93
2022-11-16T15:47:06.617Z,33.69
2022-11-16T15:49:41.730Z,33.81
2022-11-16T15:52:12.551Z,34.47
2022-11-16T15:55:00.824Z,33.76
2022-11-16T15:57:31.998Z,34.01
2022-11-16T16:00:02.394Z,34.25
2022-11-16T16:02:34.631Z,35.01
2022-11-16T16:05:05.594Z,35.45
2022-11-16T16:07:43.276Z,35.85
2022-11-16T16:10:22.015Z,36.84
2022-11-16T16:13:01.010Z,35.52
2022-11-16T16:15:37.819Z,35.17
2022-11-16T16:18:37.489Z,34.57
2022-11-16T16:21:08.030Z,34.56
2022-11-16T16:23:57.530Z,34.50
2022-11-16T16:26:28.223Z,34.60
2022-11-16T16:28:58.215Z,34.83
2022-11-16T16:31:28.109Z,34.32
2022-11-16T16:34:00.661Z,34.17
2022-11-16T16:36:30.985Z,34.39
2022-11-16T16:39:01.091Z,34.56
2022-11-16T16:41:31.336Z,33.98
2022-11-16T16:44:02.822Z,34.32
2022-11-16T16:46:34.241Z,34.77
2022-11-16T16:49:05.275Z,34.35
2022-11-16T16:51:37.479Z,34.71
2022-11-16T16:54:16.004Z,34.54
2022-11-16T16:56:48.752Z,35.03
2022-11-16T16:59:19.635Z,35.46
2022-11-16T17:01:49.966Z,35.49
2022-11-16T17:04:22.079Z,34.81
2022-11-16T17:06:55.151Z,33.82
2022-11-16T17:09:27.062Z,33.45
2022-11-16T17:11:59.668Z,33.40
2022-11-16T17:14:31.653Z,33.23
2022-11-16T17:17:02.869Z,33.78
2022-11-16T17:19:34.134Z,33.81
2022-11-16T17:22:04.470Z,33.59
2022-11-16T17:24:37.724Z,33.44
2022-11-16T17:27:09.463Z,34.26
2022-11-16T17:29:43.074Z,34.47
2022-11-16T17:32:14.388Z,35.37
2022-11-16T17:35:06.910Z,35.15
2022-11-16T17:37:42.104Z,34.68
2022-11-16T17:40:13.609Z,34.49
2022-11-16T17:42:44.843Z,34.39
2022-11-16T17:45:16.492Z,33.88
2022-11-16T17:47:48.221Z,32.84
2022-11-16T17:50:19.272Z,32.80
2022-11-16T17:52:51.028Z,33.47
2022-11-16T17:55:22.623Z,32.77
2022-11-16T17:57:54.411Z,32.27
2022-11-16T18:00:25.289Z,32.46
2022-11-16T18:02:55.614Z,32.62
2022-11-16T18:05:26.043Z,32.29
2022-11-16T18:07:56.188Z,32.77
2022-11-16T18:10:26.800Z,33.74
2022-11-16T18:12:56.708Z,33.85
2022-11-16T18:15:28.859Z,33.59
2022-11-16T18:17:59.293Z,32.53
2022-11-16T18:20:31.523Z,32.39
2022-11-16T18:23:02.069Z,32.07
2022-11-16T18:25:32.575Z,32.39
2022-11-16T18:28:02.434Z,32.09
2022-11-16T18:30:32.673Z,31.84
2022-11-16T18:33:02.525Z,31.87
2022-11-16T18:35:32.943Z,31.54
2022-11-16T18:38:03.313Z,31.09
2022-11-16T18:40:33.820Z,31.16
2022-11-16T18:43:03.747Z,31.29
2022-11-16T18:45:33.672Z,31.10
2022-11-16T18:48:03.531Z,30.83
2022-11-16T18:50:33.903Z,30.52
2022-11-16T18:53:04.730Z,30.71
2022-11-16T18:55:34.910Z,30.60
2022-11-16T18:58:22.920Z,30.42
2022-11-16T19:01:03.745Z,30.38
2022-11-16T19:03:35.107Z,30.40
2022-11-16T19:06:11.601Z,30.58
2022-11-16T19:08:43.169Z,30.52
2022-11-16T19:11:15.380Z,30.12
2022-11-16T19:13:47.109Z,30.23
2022-11-16T19:16:17.491Z,30.18
2022-11-16T19:18:47.448Z,29.96
2022-11-16T19:21:19.767Z,30.03
2022-11-16T19:23:53.589Z,29.86
2022-11-16T19:26:29.254Z,29.55
2022-11-16T19:29:00.657Z,29.70
2022-11-16T19:31:32.017Z,29.43
2022-11-16T19:34:05.777Z,29.49
2022-11-16T19:36:38.147Z,29.38
2022-11-16T19:39:08.491Z,29.34
2022-11-16T19:41:38.420Z,29.25
2022-11-16T19:44:08.555Z,29.35
2022-11-16T19:46:38.716Z,29.39
2022-11-16T19:49:11.267Z,29.29
2022-11-16T19:51:44.573Z,29.21
2022-11-16T19:54:15.982Z,29.26
2022-11-16T19:56:53.609Z,29.41
2022-11-16T19:59:24.983Z,29.39
2022-11-16T20:01:54.886Z,29.28
2022-11-16T20:04:26.654Z,29.28
2022-11-16T20:06:57.136Z,29.22
2022-11-16T20:09:27.009Z,29.10
2022-11-16T20:12:00.982Z,29.08
2022-11-16T20:14:31.472Z,29.03
2022-11-16T20:17:02.097Z,28.81
2022-11-16T20:19:32.201Z,28.67
2022-11-16T20:22:02.071Z,28.70
2022-11-16T20:24:31.936Z,28.56
2022-11-16T20:27:03.327Z,28.46
2022-11-16T20:29:33.720Z,28.33
2022-11-16T20:32:03.588Z,28.22
2022-11-16T20:34:33.493Z,28.12
2022-11-16T20:37:03.402Z,28.10
2022-11-16T20:39:33.277Z,28.06
2022-11-16T20:42:03.581Z,28.06
2022-11-16T20:44:34.742Z,27.89
2022-11-16T20:47:05.716Z,27.68
2022-11-16T20:49:35.524Z,27.51
2022-11-16T20:52:05.530Z,27.26
2022-11-16T20:54:35.550Z,27.24
2022-11-16T20:57:05.922Z,26.86
2022-11-16T20:59:35.938Z,26.65
2022-11-16T21:02:06.338Z,26.35
2022-11-16T21:04:36.221Z,26.11
2022-11-16T21:07:06.195Z,26.01
2022-11-16T21:09:55.877Z,25.71
2022-11-16T21:12:44.718Z,25.54
2022-11-16T21:15:14.842Z,25.39
2022-11-16T21:17:44.686Z,25.32
2022-11-16T21:20:29.971Z,25.25
2022-11-16T21:23:00.677Z,25.11
2022-11-16T21:25:30.772Z,25.04
2022-11-16T21:28:00.672Z,25.01
2022-11-16T21:30:31.448Z,24.84
2022-11-16T21:33:01.952Z,24.70
2022-11-16T21:35:32.591Z,24.60
2022-11-16T21:38:03.290Z,24.43
2022-11-16T21:40:33.575Z,24.26
2022-11-16T21:43:03.425Z,23.99
2022-11-16T21:45:33.255Z,23.75
2022-11-16T21:48:03.586Z,23.59
2022-11-16T21:50:33.545Z,23.47
2022-11-16T21:53:03.786Z,23.31
2022-11-16T21:55:34.081Z,23.14
2022-11-16T21:58:07.419Z,22.99
2022-11-16T22:00:37.703Z,22.89
2022-11-16T22:03:07.790Z,22.70
2022-11-16T22:05:55.627Z,22.53
2022-11-16T22:08:26.366Z,22.36
2022-11-16T22:10:56.406Z,22.15
2022-11-16T22:13:26.253Z,22.00
2022-11-16T22:15:56.150Z,21.97
2022-11-16T22:18:26.328Z,21.83
2022-11-16T22:20:56.210Z,21.78
2022-11-16T22:23:26.497Z,21.70
2022-11-16T22:25:56.866Z,21.70
2022-11-16T22:28:27.047Z,21.61
2022-11-16T22:31:02.946Z,21.54
2022-11-16T22:33:36.185Z,21.46
2022-11-16T22:36:24.567Z,21.32
2022-11-16T22:38:55.130Z,21.16
2022-11-16T22:41:24.989Z,21.07
2022-11-16T22:43:54.926Z,20.92
2022-11-16T22:46:25.295Z,20.85
2022-11-16T22:48:55.399Z,20.78
2022-11-16T22:51:29.857Z,20.67
2022-11-16T22:54:05.200Z,20.58
2022-11-16T22:56:35.610Z,20.49
2022-11-16T22:59:06.891Z,20.47
2022-11-16T23:01:37.951Z,20.38
2022-11-16T23:04:08.113Z,20.23
2022-11-16T23:06:37.958Z,20.10
2022-11-16T23:09:08.066Z,20.06
2022-11-16T23:11:56.203Z,19.90
2022-11-16T23:14:44.888Z,19.76
2022-11-16T23:17:14.941Z,19.62
2022-11-16T23:20:03.133Z,19.55
2022-11-16T23:22:51.894Z,19.46
2022-11-16T23:25:40.266Z,19.36
2022-11-16T23:28:16.070Z,19.27
2022-11-16T23:30:46.196Z,19.25
2022-11-16T23:33:17.078Z,19.25
2022-11-16T23:35:47.440Z,19.18
2022-11-16T23:38:17.342Z,19.14
2022-11-16T23:40:47.231Z,18.98
2022-11-16T23:43:36.404Z,18.84
2022-11-16T23:46:07.133Z,18.77
2022-11-16T23:48:37.533Z,18.74
2022-11-16T23:51:07.580Z,18.70
2022-11-16T23:53:37.715Z,18.59
2022-11-16T23:56:08.256Z,18.46
2022-11-16T23:58:38.664Z,18.38
